PWSweather.com
Personal Weather Stations
Station Observations
KAZPHOEN90
RayThunderhill, Phoenix, AZ

RayThunderhillPhoenix, AZ

Lat: 33.312, Lon: -112.029

Elevation: 1260

Station Type: Davis Vantage VUE

High Low Average
Temperature 103.1°F39.5°F 79.9°F26.6°F 91.9°F33.3°F
Dew Point 66.0°F18.9°F 54.6°F12.6°F 60.7°F15.9°F
Winds 10.7 mph NW17.2 mph NW Calm Calm 1.5 mph 2.4 mph
Wind Gusts 16.0 mph25.7 mph -- 3.5 mph5.6 mph
Humidity 60% 21% 37%
Pressure 29.94 in1013.90 in 29.66 in1004.40 in -
Precipitation 0.00 in0.00 in - -
Hour Temp Dew Point Humidity Winds Wind Gusts Pressure Precip Precip Rate Daily Precip Total
12:00 AM 91.0°F32.8°C 63.4°F17.4°C 40% 3.1 mph NW5.0 kmh NW 6.0 mph9.7 kmh 29.75 in1007.5 mb 0.00 in0.0 mm 0.00 in/hr0.0 mm/hr 0.00 in0.0 mm
12:15 AM 91.4°F33.0°C 64.4°F18.0°C 41% 5.2 mph NW8.4 kmh NW 13.0 mph20.9 kmh 29.75 in1007.5 mb 0.00 in0.0 mm 0.00 in/hr0.0 mm/hr 0.00 in0.0 mm
12:30 AM 90.6°F32.6°C 64.4°F18.0°C 42% 10.7 mph NW17.2 kmh NW 16.0 mph25.7 kmh 29.71 in1006.1 mb 0.00 in0.0 mm 0.00 in/hr0.0 mm/hr 0.00 in0.0 mm
12:45 AM 90.5°F32.5°C 61.5°F16.4°C 38% 7.7 mph NNW12.4 kmh NNW 15.0 mph24.1 kmh 29.66 in1004.4 mb 0.00 in0.0 mm 0.00 in/hr0.0 mm/hr 0.00 in0.0 mm
01:00 AM 90.6°F32.6°C 63.0°F17.2°C 40% 3.1 mph S5.0 kmh S 8.0 mph12.9 kmh 29.74 in1007.1 mb 0.00 in0.0 mm 0.00 in/hr0.0 mm/hr 0.00 in0.0 mm
01:15 AM 91.2°F32.9°C 62.0°F16.7°C 38% 1.9 mph WNW3.1 kmh WNW 3.0 mph4.8 kmh 29.75 in1007.5 mb 0.00 in0.0 mm 0.00 in/hr0.0 mm/hr 0.00 in0.0 mm
01:30 AM 91.8°F33.2°C 61.8°F16.6°C 37% Calm Calm 1.0 mph1.6 kmh 29.76 in1007.8 mb 0.00 in0.0 mm 0.00 in/hr0.0 mm/hr 0.00 in0.0 mm
01:45 AM 92.5°F33.6°C 60.9°F16.1°C 35% 0.4 mph ENE0.6 kmh ENE 3.0 mph4.8 kmh 29.77 in1008.1 mb 0.00 in0.0 mm 0.00 in/hr0.0 mm/hr 0.00 in0.0 mm
02:00 AM 90.5°F32.5°C 64.3°F17.9°C 42% 0.1 mph SE0.2 kmh SE 1.0 mph1.6 kmh 29.78 in1008.5 mb 0.00 in0.0 mm 0.00 in/hr0.0 mm/hr 0.00 in0.0 mm
02:15 AM 88.0°F31.1°C 65.2°F18.4°C 47% Calm Calm 1.0 mph1.6 kmh 29.78 in1008.5 mb 0.00 in0.0 mm 0.00 in/hr0.0 mm/hr 0.00 in0.0 mm
02:30 AM 86.9°F30.5°C 65.5°F18.6°C 49% 0.1 mph NNW0.2 kmh NNW -- 29.78 in1008.5 mb 0.00 in0.0 mm 0.00 in/hr0.0 mm/hr 0.00 in0.0 mm
02:45 AM 86.2°F30.1°C 65.4°F18.6°C 50% Calm Calm -- 29.78 in1008.5 mb 0.00 in0.0 mm 0.00 in/hr0.0 mm/hr 0.00 in0.0 mm
03:00 AM 86.0°F30.0°C 65.8°F18.8°C 51% Calm Calm -- 29.79 in1008.8 mb 0.00 in0.0 mm 0.00 in/hr0.0 mm/hr 0.00 in0.0 mm
03:15 AM 86.1°F30.1°C 65.9°F18.8°C 51% Calm Calm -- 29.78 in1008.5 mb 0.00 in0.0 mm 0.00 in/hr0.0 mm/hr 0.00 in0.0 mm
03:30 AM 85.7°F29.8°C 66.0°F18.9°C 52% Calm Calm -- 29.79 in1008.8 mb 0.00 in0.0 mm 0.00 in/hr0.0 mm/hr 0.00 in0.0 mm
03:45 AM 85.6°F29.8°C 66.0°F18.9°C 52% 0.2 mph SE0.3 kmh SE 1.0 mph1.6 kmh 29.80 in1009.1 mb 0.00 in0.0 mm 0.00 in/hr0.0 mm/hr 0.00 in0.0 mm
04:00 AM 85.5°F29.7°C 64.7°F18.2°C 50% 4.6 mph S7.4 kmh S 6.0 mph9.7 kmh 29.82 in1009.8 mb 0.00 in0.0 mm 0.00 in/hr0.0 mm/hr 0.00 in0.0 mm
04:15 AM 81.7°F27.6°C 65.5°F18.6°C 58% 4.8 mph SSW7.7 kmh SSW 10.0 mph16.1 kmh 29.84 in1010.5 mb 0.00 in0.0 mm 0.00 in/hr0.0 mm/hr 0.00 in0.0 mm
04:30 AM 79.9°F26.6°C 64.8°F18.2°C 60% 4.4 mph E7.1 kmh E 8.0 mph12.9 kmh 29.86 in1011.2 mb 0.00 in0.0 mm 0.00 in/hr0.0 mm/hr 0.00 in0.0 mm
04:45 AM 80.9°F27.2°C 62.7°F17.1°C 54% 3.8 mph SW6.1 kmh SW 10.0 mph16.1 kmh 29.86 in1011.2 mb 0.00 in0.0 mm 0.00 in/hr0.0 mm/hr 0.00 in0.0 mm
05:00 AM 82.5°F28.1°C 62.5°F16.9°C 51% 0.2 mph SSW0.3 kmh SSW 1.0 mph1.6 kmh 29.86 in1011.2 mb 0.00 in0.0 mm 0.00 in/hr0.0 mm/hr 0.00 in0.0 mm
05:15 AM 82.9°F28.3°C 61.8°F16.6°C 49% 2.0 mph SE3.2 kmh SE 5.0 mph8.0 kmh 29.87 in1011.5 mb 0.00 in0.0 mm 0.00 in/hr0.0 mm/hr 0.00 in0.0 mm
05:30 AM 83.0°F28.3°C 61.3°F16.3°C 48% 1.1 mph SSW1.8 kmh SSW 7.0 mph11.3 kmh 29.88 in1011.9 mb 0.00 in0.0 mm 0.00 in/hr0.0 mm/hr 0.00 in0.0 mm
05:45 AM 81.8°F27.7°C 61.9°F16.6°C 51% 0.4 mph SW0.6 kmh SW 4.0 mph6.4 kmh 29.89 in1012.2 mb 0.00 in0.0 mm 0.00 in/hr0.0 mm/hr 0.00 in0.0 mm
06:00 AM 82.0°F27.8°C 60.9°F16.1°C 49% 1.1 mph SW1.8 kmh SW 3.0 mph4.8 kmh 29.89 in1012.2 mb 0.00 in0.0 mm 0.00 in/hr0.0 mm/hr 0.00 in0.0 mm
06:15 AM 82.3°F27.9°C 60.6°F15.9°C 48% 3.4 mph WSW5.5 kmh WSW 7.0 mph11.3 kmh 29.88 in1011.9 mb 0.00 in0.0 mm 0.00 in/hr0.0 mm/hr 0.00 in0.0 mm
06:30 AM 82.0°F27.8°C 61.0°F16.1°C 49% 0.3 mph SSW0.5 kmh SSW 1.0 mph1.6 kmh 29.89 in1012.2 mb 0.00 in0.0 mm 0.00 in/hr0.0 mm/hr 0.00 in0.0 mm
06:45 AM 81.5°F27.5°C 62.2°F16.8°C 52% 0.6 mph SE1.0 kmh SE 3.0 mph4.8 kmh 29.90 in1012.5 mb 0.00 in0.0 mm 0.00 in/hr0.0 mm/hr 0.00 in0.0 mm
07:00 AM 80.5°F26.9°C 62.8°F17.1°C 55% 0.2 mph ESE0.3 kmh ESE 2.0 mph3.2 kmh 29.92 in1013.2 mb 0.00 in0.0 mm 0.00 in/hr0.0 mm/hr 0.00 in0.0 mm
07:15 AM 80.1°F26.7°C 63.0°F17.2°C 56% 0.6 mph ESE1.0 kmh ESE 1.0 mph1.6 kmh 29.93 in1013.5 mb 0.00 in0.0 mm 0.00 in/hr0.0 mm/hr 0.00 in0.0 mm
07:30 AM 80.5°F26.9°C 62.8°F17.1°C 55% 0.1 mph E0.2 kmh E 1.0 mph1.6 kmh 29.94 in1013.9 mb 0.00 in0.0 mm 0.00 in/hr0.0 mm/hr 0.00 in0.0 mm
07:45 AM 81.1°F27.3°C 62.9°F17.2°C 54% 0.2 mph E0.3 kmh E 1.0 mph1.6 kmh 29.93 in1013.5 mb 0.00 in0.0 mm 0.00 in/hr0.0 mm/hr 0.00 in0.0 mm
08:00 AM 81.4°F27.4°C 63.7°F17.6°C 55% 0.3 mph E0.5 kmh E 1.0 mph1.6 kmh 29.92 in1013.2 mb 0.00 in0.0 mm 0.00 in/hr0.0 mm/hr 0.00 in0.0 mm
08:15 AM 81.7°F27.6°C 64.0°F17.8°C 55% Calm Calm -- 29.91 in1012.9 mb 0.00 in0.0 mm 0.00 in/hr0.0 mm/hr 0.00 in0.0 mm
08:30 AM 81.8°F27.7°C 64.0°F17.8°C 55% 0.8 mph NNE1.3 kmh NNE 2.0 mph3.2 kmh 29.89 in1012.2 mb 0.00 in0.0 mm 0.00 in/hr0.0 mm/hr 0.00 in0.0 mm
08:45 AM 82.4°F28.0°C 63.5°F17.5°C 53% 0.1 mph E0.2 kmh E 1.0 mph1.6 kmh 29.90 in1012.5 mb 0.00 in0.0 mm 0.00 in/hr0.0 mm/hr 0.00 in0.0 mm
09:00 AM 83.1°F28.4°C 63.1°F17.3°C 51% 0.3 mph N0.5 kmh N 1.0 mph1.6 kmh 29.89 in1012.2 mb 0.00 in0.0 mm 0.00 in/hr0.0 mm/hr 0.00 in0.0 mm
09:15 AM 83.8°F28.8°C 64.3°F17.9°C 52% 0.2 mph ENE0.3 kmh ENE 4.0 mph6.4 kmh 29.90 in1012.5 mb 0.00 in0.0 mm 0.00 in/hr0.0 mm/hr 0.00 in0.0 mm
09:30 AM 84.7°F29.3°C 63.5°F17.5°C 49% Calm Calm -- 29.88 in1011.9 mb 0.00 in0.0 mm 0.00 in/hr0.0 mm/hr 0.00 in0.0 mm
09:45 AM 86.7°F30.4°C 64.7°F18.2°C 48% 0.2 mph ENE0.3 kmh ENE 2.0 mph3.2 kmh 29.85 in1010.8 mb 0.00 in0.0 mm 0.00 in/hr0.0 mm/hr 0.00 in0.0 mm
10:00 AM 88.6°F31.4°C 64.5°F18.1°C 45% 1.8 mph NNW2.9 kmh NNW 8.0 mph12.9 kmh 29.84 in1010.5 mb 0.00 in0.0 mm 0.00 in/hr0.0 mm/hr 0.00 in0.0 mm
10:15 AM 90.3°F32.4°C 64.1°F17.8°C 42% 0.3 mph N0.5 kmh N 3.0 mph4.8 kmh 29.85 in1010.8 mb 0.00 in0.0 mm 0.00 in/hr0.0 mm/hr 0.00 in0.0 mm
10:30 AM 91.6°F33.1°C 63.1°F17.3°C 39% 0.7 mph N1.1 kmh N 6.0 mph9.7 kmh 29.86 in1011.2 mb 0.00 in0.0 mm 0.00 in/hr0.0 mm/hr 0.00 in0.0 mm
10:45 AM 92.4°F33.6°C 63.8°F17.7°C 39% 0.1 mph S0.2 kmh S 1.0 mph1.6 kmh 29.86 in1011.2 mb 0.00 in0.0 mm 0.00 in/hr0.0 mm/hr 0.00 in0.0 mm
11:00 AM 94.3°F34.6°C 64.0°F17.8°C 37% Calm Calm -- 29.85 in1010.8 mb 0.00 in0.0 mm 0.00 in/hr0.0 mm/hr 0.00 in0.0 mm
11:15 AM 94.9°F34.9°C 63.0°F17.2°C 35% 0.2 mph SE0.3 kmh SE 1.0 mph1.6 kmh 29.84 in1010.5 mb 0.00 in0.0 mm 0.00 in/hr0.0 mm/hr 0.00 in0.0 mm
11:30 AM 95.3°F35.2°C 62.5°F16.9°C 34% 0.1 mph NW0.2 kmh NW -- 29.84 in1010.5 mb 0.00 in0.0 mm 0.00 in/hr0.0 mm/hr 0.00 in0.0 mm
11:45 AM 97.6°F36.4°C 63.6°F17.6°C 33% 0.2 mph NW0.3 kmh NW 1.0 mph1.6 kmh 29.83 in1010.2 mb 0.00 in0.0 mm 0.00 in/hr0.0 mm/hr 0.00 in0.0 mm
12:00 PM 96.2°F35.7°C 61.5°F16.4°C 32% 1.5 mph WNW2.4 kmh WNW 6.0 mph9.7 kmh 29.83 in1010.2 mb 0.00 in0.0 mm 0.00 in/hr0.0 mm/hr 0.00 in0.0 mm
12:15 PM 95.7°F35.4°C 62.0°F16.7°C 33% 2.9 mph SSE4.7 kmh SSE 5.0 mph8.0 kmh 29.83 in1010.2 mb 0.00 in0.0 mm 0.00 in/hr0.0 mm/hr 0.00 in0.0 mm
12:30 PM 94.9°F34.9°C 63.0°F17.2°C 35% 2.9 mph WSW4.7 kmh WSW 4.0 mph6.4 kmh 29.83 in1010.2 mb 0.00 in0.0 mm 0.00 in/hr0.0 mm/hr 0.00 in0.0 mm
12:45 PM 94.9°F34.9°C 63.0°F17.2°C 35% 3.2 mph WSW5.1 kmh WSW 6.0 mph9.7 kmh 29.83 in1010.2 mb 0.00 in0.0 mm 0.00 in/hr0.0 mm/hr 0.00 in0.0 mm
01:00 PM 94.9°F34.9°C 63.8°F17.7°C 36% 0.7 mph WSW1.1 kmh WSW 3.0 mph4.8 kmh 29.81 in1009.5 mb 0.00 in0.0 mm 0.00 in/hr0.0 mm/hr 0.00 in0.0 mm
01:15 PM 97.3°F36.3°C 62.5°F16.9°C 32% 2.6 mph W4.2 kmh W 7.0 mph11.3 kmh 29.80 in1009.1 mb 0.00 in0.0 mm 0.00 in/hr0.0 mm/hr 0.00 in0.0 mm
01:30 PM 98.0°F36.7°C 61.3°F16.3°C 30% 4.2 mph W6.8 kmh W 6.0 mph9.7 kmh 29.79 in1008.8 mb 0.00 in0.0 mm 0.00 in/hr0.0 mm/hr 0.00 in0.0 mm
01:45 PM 99.4°F37.4°C 59.5°F15.3°C 27% 2.3 mph WNW3.7 kmh WNW 3.0 mph4.8 kmh 29.79 in1008.8 mb 0.00 in0.0 mm 0.00 in/hr0.0 mm/hr 0.00 in0.0 mm
02:00 PM 100.1°F37.8°C 60.1°F15.6°C 27% 3.0 mph SE4.8 kmh SE 5.0 mph8.0 kmh 29.78 in1008.5 mb 0.00 in0.0 mm 0.00 in/hr0.0 mm/hr 0.00 in0.0 mm
02:15 PM 100.9°F38.3°C 59.7°F15.4°C 26% 1.9 mph NW3.1 kmh NW 4.0 mph6.4 kmh 29.76 in1007.8 mb 0.00 in0.0 mm 0.00 in/hr0.0 mm/hr 0.00 in0.0 mm
02:45 PM 102.6°F39.2°C 58.9°F14.9°C 24% 2.7 mph W4.3 kmh W 4.0 mph6.4 kmh 29.76 in1007.8 mb 0.00 in0.0 mm 0.00 in/hr0.0 mm/hr 0.00 in0.0 mm
03:00 PM 101.7°F38.7°C 57.0°F13.9°C 23% 2.5 mph WNW4.0 kmh WNW 8.0 mph12.9 kmh 29.75 in1007.5 mb 0.00 in0.0 mm 0.00 in/hr0.0 mm/hr 0.00 in0.0 mm
03:15 PM 102.3°F39.1°C 58.7°F14.8°C 24% 0.9 mph WSW1.4 kmh WSW 2.0 mph3.2 kmh 29.73 in1006.8 mb 0.00 in0.0 mm 0.00 in/hr0.0 mm/hr 0.00 in0.0 mm
03:30 PM 102.7°F39.3°C 56.6°F13.7°C 22% 3.8 mph SSW6.1 kmh SSW 5.0 mph8.0 kmh 29.73 in1006.8 mb 0.00 in0.0 mm 0.00 in/hr0.0 mm/hr 0.00 in0.0 mm
03:45 PM 102.1°F38.9°C 56.1°F13.4°C 22% 2.3 mph SSW3.7 kmh SSW 3.0 mph4.8 kmh 29.73 in1006.8 mb 0.00 in0.0 mm 0.00 in/hr0.0 mm/hr 0.00 in0.0 mm
04:00 PM 103.1°F39.5°C 56.9°F13.8°C 22% 2.0 mph W3.2 kmh W 5.0 mph8.0 kmh 29.72 in1006.4 mb 0.00 in0.0 mm 0.00 in/hr0.0 mm/hr 0.00 in0.0 mm
04:15 PM 102.4°F39.1°C 57.6°F14.2°C 23% 2.3 mph NW3.7 kmh NW 4.0 mph6.4 kmh 29.72 in1006.4 mb 0.00 in0.0 mm 0.00 in/hr0.0 mm/hr 0.00 in0.0 mm
04:30 PM 102.9°F39.4°C 58.0°F14.4°C 23% 3.8 mph W6.1 kmh W 8.0 mph12.9 kmh 29.73 in1006.8 mb 0.00 in0.0 mm 0.00 in/hr0.0 mm/hr 0.00 in0.0 mm
04:45 PM 102.8°F39.3°C 57.9°F14.4°C 23% 3.8 mph WNW6.1 kmh WNW 5.0 mph8.0 kmh 29.73 in1006.8 mb 0.00 in0.0 mm 0.00 in/hr0.0 mm/hr 0.00 in0.0 mm
05:00 PM 102.5°F39.2°C 57.6°F14.2°C 23% 1.7 mph WSW2.7 kmh WSW 6.0 mph9.7 kmh 29.73 in1006.8 mb 0.00 in0.0 mm 0.00 in/hr0.0 mm/hr 0.00 in0.0 mm
05:15 PM 102.0°F38.9°C 56.0°F13.3°C 22% 2.7 mph W4.3 kmh W 6.0 mph9.7 kmh 29.73 in1006.8 mb 0.00 in0.0 mm 0.00 in/hr0.0 mm/hr 0.00 in0.0 mm
05:30 PM 102.1°F38.9°C 56.1°F13.4°C 22% 2.7 mph S4.3 kmh S 6.0 mph9.7 kmh 29.74 in1007.1 mb 0.00 in0.0 mm 0.00 in/hr0.0 mm/hr 0.00 in0.0 mm
05:45 PM 102.3°F39.1°C 55.0°F12.8°C 21% 2.5 mph SW4.0 kmh SW 4.0 mph6.4 kmh 29.73 in1006.8 mb 0.00 in0.0 mm 0.00 in/hr0.0 mm/hr 0.00 in0.0 mm
06:00 PM 101.9°F38.8°C 55.9°F13.3°C 22% 1.4 mph W2.3 kmh W 4.0 mph6.4 kmh 29.72 in1006.4 mb 0.00 in0.0 mm 0.00 in/hr0.0 mm/hr 0.00 in0.0 mm
06:15 PM 100.9°F38.3°C 56.3°F13.5°C 23% 1.8 mph W2.9 kmh W 4.0 mph6.4 kmh 29.72 in1006.4 mb 0.00 in0.0 mm 0.00 in/hr0.0 mm/hr 0.00 in0.0 mm
06:30 PM 100.3°F37.9°C 54.6°F12.6°C 22% 3.2 mph WSW5.1 kmh WSW 5.0 mph8.0 kmh 29.73 in1006.8 mb 0.00 in0.0 mm 0.00 in/hr0.0 mm/hr 0.00 in0.0 mm
06:45 PM 99.8°F37.7°C 55.4°F13.0°C 23% 1.0 mph SW1.6 kmh SW 3.0 mph4.8 kmh 29.74 in1007.1 mb 0.00 in0.0 mm 0.00 in/hr0.0 mm/hr 0.00 in0.0 mm
07:00 PM 99.3°F37.4°C 55.0°F12.8°C 23% 1.6 mph W2.6 kmh W 1.0 mph1.6 kmh 29.75 in1007.5 mb 0.00 in0.0 mm 0.00 in/hr0.0 mm/hr 0.00 in0.0 mm
07:15 PM 97.9°F36.6°C 55.0°F12.8°C 24% 0.8 mph W1.3 kmh W 4.0 mph6.4 kmh 29.76 in1007.8 mb 0.00 in0.0 mm 0.00 in/hr0.0 mm/hr 0.00 in0.0 mm
07:30 PM 97.1°F36.2°C 55.4°F13.0°C 25% 1.8 mph NW2.9 kmh NW 6.0 mph9.7 kmh 29.76 in1007.8 mb 0.00 in0.0 mm 0.00 in/hr0.0 mm/hr 0.00 in0.0 mm
07:45 PM 96.7°F35.9°C 55.1°F12.8°C 25% 0.3 mph WNW0.5 kmh WNW 2.0 mph3.2 kmh 29.76 in1007.8 mb 0.00 in0.0 mm 0.00 in/hr0.0 mm/hr 0.00 in0.0 mm
08:00 PM 96.3°F35.7°C 54.8°F12.7°C 25% 2.2 mph W3.5 kmh W 4.0 mph6.4 kmh 29.77 in1008.1 mb 0.00 in0.0 mm 0.00 in/hr0.0 mm/hr 0.00 in0.0 mm
08:15 PM 95.8°F35.4°C 55.4°F13.0°C 26% 0.9 mph W1.4 kmh W 2.0 mph3.2 kmh 29.78 in1008.5 mb 0.00 in0.0 mm 0.00 in/hr0.0 mm/hr 0.00 in0.0 mm
08:30 PM 95.6°F35.3°C 56.3°F13.5°C 27% Calm Calm 1.0 mph1.6 kmh 29.77 in1008.1 mb 0.00 in0.0 mm 0.00 in/hr0.0 mm/hr 0.00 in0.0 mm
08:45 PM 95.2°F35.1°C 55.9°F13.3°C 27% 1.1 mph WSW1.8 kmh WSW 3.0 mph4.8 kmh 29.79 in1008.8 mb 0.00 in0.0 mm 0.00 in/hr0.0 mm/hr 0.00 in0.0 mm
09:00 PM 94.8°F34.9°C 56.6°F13.7°C 28% 0.2 mph WSW0.3 kmh WSW 1.0 mph1.6 kmh 29.79 in1008.8 mb 0.00 in0.0 mm 0.00 in/hr0.0 mm/hr 0.00 in0.0 mm
09:15 PM 94.4°F34.7°C 56.3°F13.5°C 28% Calm Calm 1.0 mph1.6 kmh 29.81 in1009.5 mb 0.00 in0.0 mm 0.00 in/hr0.0 mm/hr 0.00 in0.0 mm
09:30 PM 94.0°F34.4°C 56.9°F13.8°C 29% 0.1 mph WNW0.2 kmh WNW 1.0 mph1.6 kmh 29.80 in1009.1 mb 0.00 in0.0 mm 0.00 in/hr0.0 mm/hr 0.00 in0.0 mm
09:45 PM 93.8°F34.3°C 56.7°F13.7°C 29% Calm Calm -- 29.80 in1009.1 mb 0.00 in0.0 mm 0.00 in/hr0.0 mm/hr 0.00 in0.0 mm
10:00 PM 93.1°F33.9°C 57.1°F13.9°C 30% Calm Calm 1.0 mph1.6 kmh 29.81 in1009.5 mb 0.00 in0.0 mm 0.00 in/hr0.0 mm/hr 0.00 in0.0 mm
10:15 PM 93.5°F34.2°C 56.5°F13.6°C 29% Calm Calm -- 29.80 in1009.1 mb 0.00 in0.0 mm 0.00 in/hr0.0 mm/hr 0.00 in0.0 mm
10:30 PM 92.2°F33.4°C 56.3°F13.5°C 30% Calm Calm -- 29.81 in1009.5 mb 0.00 in0.0 mm 0.00 in/hr0.0 mm/hr 0.00 in0.0 mm
10:45 PM 91.0°F32.8°C 56.2°F13.4°C 31% Calm Calm -- 29.82 in1009.8 mb 0.00 in0.0 mm 0.00 in/hr0.0 mm/hr 0.00 in0.0 mm
11:00 PM 90.3°F32.4°C 56.4°F13.6°C 32% Calm Calm -- 29.83 in1010.2 mb 0.00 in0.0 mm 0.00 in/hr0.0 mm/hr 0.00 in0.0 mm
11:15 PM 90.6°F32.6°C 59.9°F15.5°C 36% 1.2 mph ESE1.9 kmh ESE 4.0 mph6.4 kmh 29.86 in1011.2 mb 0.00 in0.0 mm 0.00 in/hr0.0 mm/hr 0.00 in0.0 mm
11:30 PM 88.6°F31.4°C 61.9°F16.6°C 41% 0.3 mph E0.5 kmh E 1.0 mph1.6 kmh 29.87 in1011.5 mb 0.00 in0.0 mm 0.00 in/hr0.0 mm/hr 0.00 in0.0 mm
11:45 PM 87.8°F31.0°C 61.2°F16.2°C 41% 0.8 mph E1.3 kmh E 1.0 mph1.6 kmh 29.87 in1011.5 mb 0.00 in0.0 mm 0.00 in/hr0.0 mm/hr 0.00 in0.0 mm